Huvudsida
METAR-TAF:

METAR-TAF

Flygplatser :

Mendoza Aerodrome

Mendoza, Argentina

latitud: 32-50S, longitud: 068-47W, höjd: 705 m

Aktuellt väderrapport

Denna rapport gjordes för 56 minuter sedan, klockan 11:00 UTC
Stilla vind
Temperatur 7°C
Fuktighet 76%
Tryck 1021 hPa
Sikt 10 km eller mer
Inga moln under 1 500 m eller inga cumulonimbus

METAR: SAME 241100Z 00000KT CAVOK 07/03 Q1021

Tid: 08:56 (11:56 UTC)

Väderprognos

Denna rapport gjordes för 56 minuter sedan, klockan 11:00 UTC
Prognos gäller från 24 kl. 12 UTC till 25 kl. 12 UTC
Vind 5 kt från nordost
Sikt 10 km eller mer
Inga moln under 1 500 m eller inga cumulonimbus

TAF: SAME 241100Z 2412/2512 05005KT CAVOK TX21/2420Z TN07/2510Z

Aktuella väderrapporter och prognoser från 4000 flygplatser (METAR- och TAF-rapporter).

De tillgängliga stationerna syns som gula och röda prickar på kartan.

För musen över prickarna för att se namnen på stationerna.

Klicka sedan för att få väderrapporter och prognoser.

För att ändra kartan: Klicka på de gröna knapparna med ett svart kors på för att zooma in; den gröna knappen med ett streck på för att zooma ut; eller på de gröna pilarna för angränsande kartor.


METAR-TAF: